Time;durP1;ratioP1;P1;durP2;ratioP2;P2;SDS_P1;SDS_P2;PMS_P1;PMS_P2;Temp;Humidity;BMP_temperature;BMP_pressure;BME280_temperature;BME280_humidity;BME280_pressure;Samples;Min_cycle;Max_cycle;Signal;HPM_P1;HPM_P2
2022/01/25 00:15:32;;;;;;;;;;;3.10;87.20;;;;;;4130898;28;20042;-59
2022/01/25 00:26:17;;;;;;;0.00;0.00;;;3.40;85.90;;;;;;4144902;28;20042;-59
2022/01/25 00:28:51;;;;;;;0.00;0.00;;;3.40;86.30;;;;;;4132003;28;20486;-59
2022/01/25 00:31:16;;;;;;;0.00;0.00;;;3.50;86.40;;;;;;4140937;28;20053;-56
2022/01/25 00:33:42;;;;;;;0.00;0.00;;;3.40;86.50;;;;;;4115799;28;20042;-58
2022/01/25 00:36:07;;;;;;;0.00;0.00;;;3.50;86.60;;;;;;4140277;28;20152;-61
2022/01/25 00:38:37;;;;;;;0.00;0.00;;;3.60;86.20;;;;;;4158996;28;20046;-55
2022/01/25 00:41:03;;;;;;;0.00;0.00;;;3.50;86.30;;;;;;4160006;28;20049;-56
2022/01/25 00:43:27;;;;;;;0.00;0.00;;;3.50;86.30;;;;;;4148348;28;20085;-50
2022/01/25 00:45:53;;;;;;;0.00;0.00;;;3.60;86.30;;;;;;4147772;28;20052;-59
2022/01/25 00:48:30;;;;;;;0.00;0.00;;;3.60;86.30;;;;;;4162519;28;20046;-54
2022/01/25 00:51:02;;;;;;;0.00;0.00;;;3.40;86.50;;;;;;4156214;28;20054;-59
2022/01/25 00:56:08;;;;;;;0.00;0.00;;;3.50;86.80;;;;;;4157637;28;20038;-57
2022/01/25 00:58:30;;;;;;;0.00;0.00;;;3.60;86.30;;;;;;4144729;28;20444;-53
2022/01/25 01:00:52;;;;;;;0.00;0.00;;;3.50;86.60;;;;;;4136195;28;20121;-58
2022/01/25 01:03:15;;;;;;;0.00;0.00;;;3.40;86.90;;;;;;4148321;28;20058;-57
2022/01/25 01:05:39;;;;;;;0.00;0.00;;;3.40;86.90;;;;;;4147451;28;20627;-59
2022/01/25 01:08:12;;;;;;;0.00;0.00;;;3.40;86.80;;;;;;4160767;28;20091;-57
2022/01/25 01:10:34;;;;;;;0.00;0.00;;;3.40;86.70;;;;;;4148267;28;20038;-59
2022/01/25 01:29:52;;;;;;;0.00;0.00;;;3.10;87.60;;;;;;4148128;28;20111;-56
2022/01/25 01:32:38;;;;;;;0.00;0.00;;;3.10;88.10;;;;;;4147424;28;20109;-55
2022/01/25 01:36:23;;;;;;;0.00;0.00;;;3.00;88.00;;;;;;4156863;28;20100;-50
2022/01/25 01:43:52;;;;;;;0.00;0.00;;;3.50;86.90;;;;;;4146261;28;20575;-57
2022/01/25 01:49:03;;;;;;;0.00;0.00;;;3.30;88.20;;;;;;4164258;28;20430;-59
2022/01/25 01:51:31;;;;;;;0.00;0.00;;;3.30;87.30;;;;;;4162863;28;20327;-60
2022/01/25 01:53:56;;;;;;;0.00;0.00;;;3.20;87.60;;;;;;4163107;28;20511;-58
2022/01/25 01:56:23;;;;;;;0.00;0.00;;;3.10;88.10;;;;;;4163866;28;20049;-55
2022/01/25 01:58:58;;;;;;;0.00;0.00;;;3.20;88.40;;;;;;4163953;28;20087;-56
2022/01/25 02:01:28;;;;;;;0.00;0.00;;;3.30;88.20;;;;;;4153552;28;20056;-59
2022/01/25 02:03:56;;;;;;;0.00;0.00;;;3.30;87.80;;;;;;4147573;28;20099;-53
2022/01/25 02:06:19;;;;;;;0.00;0.00;;;3.30;88.10;;;;;;4148402;28;20395;-53
2022/01/25 02:08:52;;;;;;;0.00;0.00;;;3.30;88.00;;;;;;4162868;28;20045;-53
2022/01/25 02:11:16;;;;;;;0.00;0.00;;;3.20;88.00;;;;;;4153661;28;20085;-56
2022/01/25 02:13:41;;;;;;;0.00;0.00;;;3.20;88.00;;;;;;4159386;28;20465;-56
2022/01/25 02:24:44;;;;;;;0.00;0.00;;;3.20;88.20;;;;;;4175962;28;20037;-60
2022/01/25 02:27:07;;;;;;;0.00;0.00;;;2.90;89.10;;;;;;4154893;28;20050;-61
2022/01/25 02:29:41;;;;;;;0.00;0.00;;;2.90;89.30;;;;;;4146072;28;20096;-60
2022/01/25 02:32:04;;;;;;;0.00;0.00;;;2.90;89.10;;;;;;4161240;28;20487;-58
2022/01/25 02:34:27;;;;;;;0.00;0.00;;;2.90;89.10;;;;;;4161516;28;20518;-57
2022/01/25 02:37:03;;;;;;;0.00;0.00;;;2.90;89.10;;;;;;4162383;28;20041;-58
2022/01/25 02:39:26;;;;;;;0.00;0.00;;;2.90;89.10;;;;;;4165758;28;20075;-56
2022/01/25 02:41:50;;;;;;;0.00;0.00;;;3.00;88.90;;;;;;4159681;28;20057;-56
2022/01/25 02:44:18;;;;;;;0.00;0.00;;;3.00;88.70;;;;;;4161837;28;20141;-59
2022/01/25 02:49:10;;;;;;;0.00;0.00;;;2.50;90.10;;;;;;4176105;28;20049;-57
2022/01/25 02:51:45;;;;;;;0.00;0.00;;;2.60;90.20;;;;;;4161995;28;20479;-58
2022/01/25 02:54:09;;;;;;;0.00;0.00;;;2.60;90.10;;;;;;4146255;28;20794;-59
2022/01/25 02:56:32;;;;;;;0.00;0.00;;;2.70;90.00;;;;;;4162014;28;20046;-57
2022/01/25 02:58:55;;;;;;;0.00;0.00;;;2.70;89.90;;;;;;4162273;28;20057;-59
2022/01/25 03:01:18;;;;;;;0.00;0.00;;;2.60;90.00;;;;;;4161341;28;20053;-60
2022/01/25 03:03:41;;;;;;;0.00;0.00;;;2.70;90.00;;;;;;4175862;28;20463;-60
2022/01/25 03:06:05;;;;;;;0.00;0.00;;;2.70;90.10;;;;;;4148512;28;20045;-58
2022/01/25 03:08:27;;;;;;;0.00;0.00;;;2.60;90.20;;;;;;4147601;28;20058;-58
2022/01/25 03:10:50;;;;;;;0.00;0.00;;;2.70;90.10;;;;;;4156088;28;20045;-60
2022/01/25 03:13:20;;;;;;;0.00;0.00;;;2.70;90.00;;;;;;4153933;28;20161;-57
2022/01/25 03:16:01;;;;;;;;;;;2.80;90.00;;;;;;4162282;28;20702;-59
2022/01/25 03:21:01;;;;;;;0.00;0.00;;;2.60;90.10;;;;;;4161625;28;20053;-60
2022/01/25 03:23:23;;;;;;;0.00;0.00;;;2.50;90.20;;;;;;4166152;28;20049;-59
2022/01/25 03:25:47;;;;;;;0.00;0.00;;;2.30;90.40;;;;;;4164644;28;20438;-58
2022/01/25 03:28:10;;;;;;;0.00;0.00;;;2.20;90.60;;;;;;4174697;28;20088;-55
2022/01/25 03:30:32;;;;;;;0.00;0.00;;;2.40;90.70;;;;;;4146899;28;20108;-60
2022/01/25 03:32:55;;;;;;;0.00;0.00;;;2.50;90.60;;;;;;4161442;28;20045;-55
2022/01/25 03:35:18;;;;;;;0.00;0.00;;;2.50;90.40;;;;;;4161457;28;20073;-61
2022/01/25 03:37:40;;;;;;;0.00;0.00;;;2.40;90.60;;;;;;4175511;28;20085;-59
2022/01/25 03:40:03;;;;;;;0.00;0.00;;;2.50;90.60;;;;;;4175409;28;20605;-59
2022/01/25 03:42:26;;;;;;;0.00;0.00;;;2.50;90.60;;;;;;4174788;28;20102;-60
2022/01/25 03:44:49;;;;;;;0.00;0.00;;;2.60;90.60;;;;;;4161570;28;20458;-60
2022/01/25 03:47:16;;;;;;;0.00;0.00;;;2.60;90.40;;;;;;4161625;28;20084;-59
2022/01/25 03:49:51;;;;;;;0.00;0.00;;;2.60;90.40;;;;;;4161326;28;20057;-59
2022/01/25 03:52:13;;;;;;;0.00;0.00;;;2.50;90.30;;;;;;4174715;28;20542;-59
2022/01/25 03:54:36;;;;;;;0.00;0.00;;;2.40;90.50;;;;;;4161253;28;20056;-56
2022/01/25 03:56:58;;;;;;;0.00;0.00;;;2.30;90.70;;;;;;4161389;28;20077;-52
2022/01/25 03:59:21;;;;;;;0.00;0.00;;;2.40;90.70;;;;;;4175133;28;20053;-55
2022/01/25 04:01:43;;;;;;;0.00;0.00;;;2.40;90.60;;;;;;4160971;28;20065;-60
2022/01/25 04:04:11;;;;;;;0.00;0.00;;;2.50;90.60;;;;;;4161384;28;20060;-60
2022/01/25 04:06:35;;;;;;;0.00;0.00;;;2.70;90.50;;;;;;4144775;28;20169;-60
2022/01/25 04:09:04;;;;;;;0.00;0.00;;;2.80;90.20;;;;;;4158856;28;20081;-60
2022/01/25 04:11:27;;;;;;;0.00;0.00;;;2.90;90.00;;;;;;4144836;28;20052;-63
2022/01/25 04:13:52;;;;;;;0.00;0.00;;;2.80;90.00;;;;;;4146982;28;20050;-59
2022/01/25 04:16:20;;;;;;;0.00;0.00;;;2.90;90.00;;;;;;4161575;28;20055;-60
2022/01/25 04:19:02;;;;;;;0.00;0.00;;;2.90;89.80;;;;;;4148397;28;20053;-60
2022/01/25 04:26:27;;;;;;;0.00;0.00;;;3.00;89.00;;;;;;4177974;28;20077;-60
2022/01/25 04:28:50;;;;;;;0.00;0.00;;;2.90;89.40;;;;;;4164559;28;20848;-57
2022/01/25 04:31:16;;;;;;;0.00;0.00;;;2.90;90.00;;;;;;4178023;28;20049;-60
2022/01/25 04:33:42;;;;;;;0.00;0.00;;;3.10;89.60;;;;;;4178285;28;20053;-60
2022/01/25 04:49:21;;;;;;;0.00;0.00;;;3.00;88.90;;;;;;4164065;28;20091;-60
2022/01/25 04:54:47;;;;;;;0.00;0.00;;;3.00;89.00;;;;;;4132237;28;20512;-58
2022/01/25 04:57:41;;;;;;;0.00;0.00;;;3.10;88.50;;;;;;4132964;28;20232;-59
2022/01/25 05:00:13;;;;;;;0.00;0.00;;;3.20;88.40;;;;;;4132869;28;20526;-58
2022/01/25 05:05:37;;;;;;;0.00;0.00;;;3.30;88.10;;;;;;4132800;28;20047;-59
2022/01/25 05:10:17;;;;;;;0.00;0.00;;;3.30;87.90;;;;;;4132242;28;20054;-53
2022/01/25 05:12:45;;;;;;;0.00;0.00;;;3.30;87.90;;;;;;4132615;28;20128;-59
2022/01/25 05:15:38;;;;;;;0.00;0.00;;;3.30;87.60;;;;;;4132655;28;20078;-60
2022/01/25 05:23:13;;;;;;;0.00;0.00;;;3.30;88.00;;;;;;4133017;28;20016;-60
2022/01/25 05:25:36;;;;;;;0.00;0.00;;;3.30;87.60;;;;;;4131827;28;20980;-60
2022/01/25 05:27:58;;;;;;;0.00;0.00;;;3.30;87.60;;;;;;4132772;28;20050;-60
2022/01/25 05:30:21;;;;;;;0.00;0.00;;;3.30;87.60;;;;;;4149036;28;20136;-60
2022/01/25 05:32:43;;;;;;;0.00;0.00;;;3.30;87.40;;;;;;4163595;28;20092;-59
2022/01/25 05:35:06;;;;;;;0.00;0.00;;;3.30;87.50;;;;;;4177360;28;20045;-59
2022/01/25 05:37:31;;;;;;;0.00;0.00;;;3.30;87.30;;;;;;4149753;28;20137;-60
2022/01/25 05:39:54;;;;;;;0.00;0.00;;;3.30;87.50;;;;;;4163700;28;20089;-58
2022/01/25 05:47:14;;;;;;;0.00;0.00;;;2.80;88.50;;;;;;4163295;28;20702;-59
2022/01/25 05:49:43;;;;;;;0.00;0.00;;;2.90;88.90;;;;;;4177444;28;20076;-56
2022/01/25 05:52:09;;;;;;;0.00;0.00;;;3.00;88.70;;;;;;4163062;28;20054;-57
2022/01/25 05:54:32;;;;;;;0.00;0.00;;;3.10;88.40;;;;;;4176861;28;20484;-59
2022/01/25 05:56:55;;;;;;;0.00;0.00;;;3.10;88.20;;;;;;4163341;28;20080;-58
2022/01/25 05:59:17;;;;;;;0.00;0.00;;;3.10;88.00;;;;;;4163248;28;20045;-59
2022/01/25 06:01:39;;;;;;;0.00;0.00;;;2.60;88.80;;;;;;4162899;28;20052;-61
2022/01/25 06:04:04;;;;;;;0.00;0.00;;;2.60;89.80;;;;;;4163228;28;20046;-60
2022/01/25 06:06:29;;;;;;;0.00;0.00;;;2.70;89.90;;;;;;4146321;28;20415;-61
2022/01/25 06:08:54;;;;;;;0.00;0.00;;;2.70;89.70;;;;;;4160815;28;20042;-60
2022/01/25 06:11:17;;;;;;;0.00;0.00;;;2.70;89.40;;;;;;4146438;28;20111;-57
2022/01/25 06:13:39;;;;;;;0.00;0.00;;;2.60;89.80;;;;;;4146404;28;20082;-57
2022/01/25 06:16:01;;;;;;;0.00;0.00;;;2.60;89.90;;;;;;4146591;28;20147;-60
2022/01/25 06:18:24;;;;;;;0.00;0.00;;;2.60;90.10;;;;;;4162517;28;20050;-57
2022/01/25 06:20:46;;;;;;;0.00;0.00;;;2.70;90.10;;;;;;4162686;28;20046;-60
2022/01/25 06:23:09;;;;;;;0.00;0.00;;;2.60;89.70;;;;;;4162924;28;20073;-59
2022/01/25 06:25:31;;;;;;;0.00;0.00;;;2.60;89.50;;;;;;4162934;28;20548;-55
2022/01/25 06:27:53;;;;;;;0.00;0.00;;;2.70;89.70;;;;;;4162916;28;20042;-55
2022/01/25 06:30:19;;;;;;;0.00;0.00;;;2.70;89.50;;;;;;4162471;28;20046;-59
2022/01/25 06:32:43;;;;;;;0.00;0.00;;;2.70;89.80;;;;;;4162886;28;20158;-60
2022/01/25 06:35:07;;;;;;;0.00;0.00;;;2.80;89.90;;;;;;4176504;28;20476;-62
2022/01/25 06:37:29;;;;;;;0.00;0.00;;;2.90;89.60;;;;;;4162496;28;20046;-61
2022/01/25 06:39:52;;;;;;;0.00;0.00;;;3.00;89.30;;;;;;4162605;28;20558;-59
2022/01/25 06:42:14;;;;;;;0.00;0.00;;;3.00;89.30;;;;;;4175893;28;20051;-59
2022/01/25 06:44:37;;;;;;;0.00;0.00;;;3.10;89.10;;;;;;4162616;28;20549;-55
2022/01/25 06:47:02;;;;;;;0.00;0.00;;;3.20;88.60;;;;;;4162529;28;20616;-57
2022/01/25 06:49:24;;;;;;;0.00;0.00;;;3.20;88.40;;;;;;4162616;28;20140;-59
2022/01/25 06:52:04;;;;;;;0.00;0.00;;;3.10;88.40;;;;;;4189648;28;20037;-58
2022/01/25 06:54:27;;;;;;;0.00;0.00;;;3.10;88.50;;;;;;4161725;28;20064;-60
2022/01/25 06:56:49;;;;;;;0.00;0.00;;;3.00;88.70;;;;;;4162361;28;20049;-60
2022/01/25 06:59:15;;;;;;;0.00;0.00;;;3.10;88.70;;;;;;4162411;28;20042;-61
2022/01/25 07:01:38;;;;;;;0.00;0.00;;;3.00;88.60;;;;;;4162021;28;20673;-59
2022/01/25 07:04:01;;;;;;;0.00;0.00;;;2.90;88.80;;;;;;4162307;28;20053;-60
2022/01/25 07:06:23;;;;;;;0.00;0.00;;;2.80;89.10;;;;;;4162127;28;20061;-60
2022/01/25 07:08:46;;;;;;;0.00;0.00;;;2.80;89.20;;;;;;4162201;28;20049;-60
2022/01/25 07:11:08;;;;;;;0.00;0.00;;;2.90;89.30;;;;;;4142471;28;20431;-59
2022/01/25 07:13:31;;;;;;;0.00;0.00;;;3.00;89.30;;;;;;4162504;28;20061;-59
2022/01/25 07:15:53;;;;;;;0.00;0.00;;;3.00;89.30;;;;;;4161905;28;20072;-59
2022/01/25 07:18:15;;;;;;;0.00;0.00;;;2.90;89.30;;;;;;4145981;28;20487;-60
2022/01/25 07:20:38;;;;;;;0.00;0.00;;;2.90;89.30;;;;;;4175293;28;20048;-59
2022/01/25 07:23:07;;;;;;;0.00;0.00;;;2.90;89.20;;;;;;4175735;28;20044;-60
2022/01/25 07:25:30;;;;;;;0.00;0.00;;;3.00;89.20;;;;;;4162360;28;20056;-60
2022/01/25 07:27:52;;;;;;;0.00;0.00;;;3.00;89.20;;;;;;4162063;28;20408;-60
2022/01/25 07:30:15;;;;;;;0.00;0.00;;;3.10;89.00;;;;;;4161442;28;20375;-60
2022/01/25 07:32:38;;;;;;;0.00;0.00;;;3.00;88.90;;;;;;4161837;28;20132;-59
2022/01/25 07:35:05;;;;;;;0.00;0.00;;;3.00;89.20;;;;;;4161752;28;20045;-60
2022/01/25 07:37:27;;;;;;;0.00;0.00;;;3.00;89.40;;;;;;4161970;28;20410;-59
2022/01/25 07:39:53;;;;;;;0.00;0.00;;;3.10;89.10;;;;;;4161891;28;20057;-59
2022/01/25 07:42:17;;;;;;;0.00;0.00;;;3.10;89.60;;;;;;4161129;28;20049;-60
2022/01/25 07:44:50;;;;;;;0.00;0.00;;;3.20;88.80;;;;;;4161974;28;20139;-60
2022/01/25 07:47:12;;;;;;;0.00;0.00;;;3.30;88.50;;;;;;4148893;28;20179;-60
2022/01/25 07:49:35;;;;;;;0.00;0.00;;;3.30;88.40;;;;;;4181249;28;20846;-60
2022/01/25 07:51:59;;;;;;;0.00;0.00;;;3.30;88.10;;;;;;4166693;28;20053;-58
2022/01/25 07:54:22;;;;;;;0.00;0.00;;;3.20;87.70;;;;;;4171784;28;20085;-59
2022/01/25 07:56:44;;;;;;;0.00;0.00;;;2.70;89.00;;;;;;4196615;28;20051;-60
2022/01/25 07:59:06;;;;;;;0.00;0.00;;;2.70;90.10;;;;;;4181926;28;20406;-60
2022/01/25 08:01:29;;;;;;;0.00;0.00;;;2.80;90.00;;;;;;4180338;28;20510;-60
2022/01/25 08:03:52;;;;;;;0.00;0.00;;;3.00;89.40;;;;;;4180832;28;20052;-60
2022/01/25 08:06:17;;;;;;;0.00;0.00;;;3.10;89.30;;;;;;4152933;28;20164;-60
2022/01/25 08:08:43;;;;;;;0.00;0.00;;;3.10;89.10;;;;;;4153692;28;20049;-60
2022/01/25 08:11:06;;;;;;;0.00;0.00;;;3.20;88.70;;;;;;4158592;28;20069;-60
2022/01/25 08:13:29;;;;;;;0.00;0.00;;;3.10;88.60;;;;;;4139647;28;20057;-60
2022/01/25 08:15:56;;;;;;;0.00;0.00;;;3.10;88.90;;;;;;4166916;28;20046;-60
2022/01/25 08:18:24;;;;;;;0.00;0.00;;;3.00;88.80;;;;;;4166591;28;20128;-60
2022/01/25 08:20:52;;;;;;;0.00;0.00;;;3.10;88.90;;;;;;4166779;28;20075;-60
2022/01/25 08:23:15;;;;;;;0.00;0.00;;;3.10;88.60;;;;;;4166679;28;20060;-61
2022/01/25 08:25:43;;;;;;;0.00;0.00;;;3.00;88.60;;;;;;4166850;28;20072;-61
2022/01/25 08:28:10;;;;;;;0.00;0.00;;;2.90;88.60;;;;;;4189563;28;20051;-60
2022/01/25 08:30:35;;;;;;;0.00;0.00;;;2.80;89.00;;;;;;4182566;28;20041;-60
2022/01/25 08:32:58;;;;;;;0.00;0.00;;;2.80;89.00;;;;;;4176715;28;20049;-60
2022/01/25 08:35:32;;;;;;;0.00;0.00;;;2.90;89.00;;;;;;4177238;28;20064;-58
2022/01/25 08:38:09;;;;;;;0.00;0.00;;;3.00;88.70;;;;;;4197410;28;20204;-60
2022/01/25 08:40:45;;;;;;;0.00;0.00;;;2.90;88.40;;;;;;4177891;28;20034;-59
2022/01/25 08:43:07;;;;;;;0.00;0.00;;;2.80;88.90;;;;;;4166477;28;20057;-60
2022/01/25 08:45:36;;;;;;;0.00;0.00;;;2.90;89.00;;;;;;4166760;28;20498;-60
2022/01/25 08:47:58;;;;;;;0.00;0.00;;;3.10;88.70;;;;;;4153015;28;20049;-60
2022/01/25 08:50:27;;;;;;;0.00;0.00;;;3.10;88.00;;;;;;4196693;28;20080;-59
2022/01/25 08:52:49;;;;;;;0.00;0.00;;;3.10;87.60;;;;;;4183299;28;20049;-54
2022/01/25 08:55:28;;;;;;;0.00;0.00;;;3.10;87.80;;;;;;4164764;28;20041;-60
2022/01/25 08:57:57;;;;;;;0.00;0.00;;;3.00;88.00;;;;;;4166895;28;20112;-59
2022/01/25 09:00:21;;;;;;;0.00;0.00;;;3.10;88.10;;;;;;4176014;28;20463;-60
2022/01/25 09:02:44;;;;;;;0.00;0.00;;;3.10;88.00;;;;;;4172424;28;20100;-59
2022/01/25 09:05:07;;;;;;;0.00;0.00;;;3.10;88.00;;;;;;4188333;28;20049;-57
2022/01/25 09:07:29;;;;;;;0.00;0.00;;;3.20;87.90;;;;;;4211288;28;20475;-60
2022/01/25 09:09:52;;;;;;;0.00;0.00;;;3.20;87.70;;;;;;4196865;28;20049;-60
2022/01/25 09:12:14;;;;;;;0.00;0.00;;;3.20;87.70;;;;;;4210344;28;20076;-59
2022/01/25 09:14:37;;;;;;;0.00;0.00;;;3.20;87.60;;;;;;4196602;28;20048;-60
2022/01/25 09:16:59;;;;;;;0.00;0.00;;;3.10;87.80;;;;;;4197008;28;20064;-61
2022/01/25 09:19:21;;;;;;;0.00;0.00;;;3.20;87.80;;;;;;4210787;28;20089;-59
2022/01/25 09:21:44;;;;;;;0.00;0.00;;;3.20;87.90;;;;;;4210474;28;20048;-61
2022/01/25 09:24:08;;;;;;;0.00;0.00;;;3.20;87.70;;;;;;4196535;28;20055;-59
2022/01/25 09:26:30;;;;;;;0.00;0.00;;;3.30;87.70;;;;;;4196299;28;20044;-60
2022/01/25 09:28:54;;;;;;;0.00;0.00;;;3.30;87.30;;;;;;4184769;28;20048;-59
2022/01/25 09:31:19;;;;;;;0.00;0.00;;;3.10;87.80;;;;;;4179661;28;20148;-61
2022/01/25 09:33:41;;;;;;;0.00;0.00;;;2.90;88.50;;;;;;4193666;28;20418;-58
2022/01/25 09:36:04;;;;;;;0.00;0.00;;;2.80;88.70;;;;;;4193908;28;20106;-60
2022/01/25 09:38:27;;;;;;;0.00;0.00;;;3.00;88.90;;;;;;4165993;28;20061;-59
2022/01/25 09:40:51;;;;;;;0.00;0.00;;;3.10;88.60;;;;;;4179400;28;20132;-60
2022/01/25 09:43:14;;;;;;;0.00;0.00;;;3.20;88.10;;;;;;4193751;28;20510;-60
2022/01/25 09:45:37;;;;;;;0.00;0.00;;;3.30;88.00;;;;;;4180004;28;20072;-60
2022/01/25 09:48:03;;;;;;;0.00;0.00;;;3.40;87.50;;;;;;4193750;28;20041;-60
2022/01/25 09:50:30;;;;;;;0.00;0.00;;;3.30;87.80;;;;;;4179249;28;20411;-60
2022/01/25 09:52:52;;;;;;;0.00;0.00;;;3.20;88.30;;;;;;4179754;28;20080;-59
2022/01/25 09:55:19;;;;;;;0.00;0.00;;;3.40;88.20;;;;;;4188425;28;20051;-60
2022/01/25 09:57:42;;;;;;;0.00;0.00;;;3.40;87.70;;;;;;4177242;28;20045;-60
2022/01/25 10:00:09;;;;;;;0.00;0.00;;;3.40;87.90;;;;;;4178050;28;20465;-61
2022/01/25 10:03:09;;;;;;;0.00;0.00;;;3.40;88.20;;;;;;4166045;28;20049;-61
2022/01/25 10:05:37;;;;;;;0.00;0.00;;;3.60;88.00;;;;;;4179488;28;20061;-60
2022/01/25 10:08:09;;;;;;;0.00;0.00;;;3.70;87.80;;;;;;4179583;28;20298;-60
2022/01/25 10:10:34;;;;;;;0.00;0.00;;;3.50;87.60;;;;;;4178188;28;20494;-60
2022/01/25 10:13:18;;;;;;;0.00;0.00;;;3.70;88.50;;;;;;4179680;28;20044;-60
2022/01/25 10:15:41;;;;;;;0.00;0.00;;;3.90;87.80;;;;;;4179416;28;20080;-59
2022/01/25 10:18:11;;;;;;;0.00;0.00;;;3.90;87.20;;;;;;4179034;28;20049;-61
2022/01/25 10:20:36;;;;;;;0.00;0.00;;;4.00;87.00;;;;;;4192721;28;20055;-60
2022/01/25 10:23:01;;;;;;;0.00;0.00;;;4.20;86.60;;;;;;4179404;28;20053;-60
2022/01/25 10:25:42;;;;;;;0.00;0.00;;;4.30;86.10;;;;;;4179150;28;20055;-60
2022/01/25 10:28:15;;;;;;;0.00;0.00;;;4.30;85.50;;;;;;4165703;28;20136;-61
2022/01/25 10:30:40;;;;;;;0.00;0.00;;;4.40;85.60;;;;;;4177446;28;20807;-60
2022/01/25 10:33:31;;;;;;;0.00;0.00;;;4.50;85.60;;;;;;4171261;28;20084;-58
2022/01/25 10:35:58;;;;;;;0.00;0.00;;;4.40;85.40;;;;;;4162176;28;20128;-59
2022/01/25 10:38:26;;;;;;;0.00;0.00;;;4.10;85.60;;;;;;4178758;28;20086;-59
2022/01/25 10:40:54;;;;;;;0.00;0.00;;;4.20;86.30;;;;;;4178507;28;20068;-56
2022/01/25 10:43:22;;;;;;;0.00;0.00;;;4.40;86.00;;;;;;4178857;28;20124;-59
2022/01/25 10:45:44;;;;;;;0.00;0.00;;;4.50;85.60;;;;;;4179847;28;20051;-61
2022/01/25 10:48:07;;;;;;;0.00;0.00;;;4.60;85.30;;;;;;4162500;28;20416;-59
2022/01/25 10:50:34;;;;;;;0.00;0.00;;;4.70;84.90;;;;;;4178196;28;20155;-58
2022/01/25 10:53:10;;;;;;;0.00;0.00;;;4.70;84.60;;;;;;4165273;28;20076;-59
2022/01/25 10:55:37;;;;;;;0.00;0.00;;;4.70;84.50;;;;;;4178414;28;20120;-59
2022/01/25 10:58:03;;;;;;;0.00;0.00;;;4.80;84.70;;;;;;4165133;28;20048;-59
2022/01/25 11:00:32;;;;;;;0.00;0.00;;;4.70;84.30;;;;;;4178065;28;20461;-58
2022/01/25 11:02:56;;;;;;;0.00;0.00;;;4.30;85.30;;;;;;4183799;28;20079;-58
2022/01/25 11:05:19;;;;;;;0.00;0.00;;;4.30;85.70;;;;;;4174149;28;20661;-59
2022/01/25 11:07:44;;;;;;;0.00;0.00;;;4.50;85.40;;;;;;4182639;28;20051;-59
2022/01/25 11:10:09;;;;;;;0.00;0.00;;;4.40;84.30;;;;;;4208669;28;20036;-59
2022/01/25 11:12:39;;;;;;;0.00;0.00;;;4.30;85.20;;;;;;4194780;28;20048;-59
2022/01/25 11:15:22;;;;;;;0.00;0.00;;;4.30;85.40;;;;;;4194973;28;20049;-59
2022/01/25 11:17:47;;;;;;;0.00;0.00;;;4.50;85.60;;;;;;4195129;28;20056;-59
2022/01/25 11:20:09;;;;;;;0.00;0.00;;;4.70;84.70;;;;;;4181286;28;20140;-59
2022/01/25 11:22:32;;;;;;;0.00;0.00;;;4.50;84.30;;;;;;4180073;28;20045;-60
2022/01/25 11:25:04;;;;;;;0.00;0.00;;;4.40;84.70;;;;;;4174948;28;20049;-57
2022/01/25 11:27:29;;;;;;;0.00;0.00;;;4.00;86.10;;;;;;4190978;28;20056;-60
2022/01/25 11:29:54;;;;;;;0.00;0.00;;;3.60;87.60;;;;;;4177444;28;20049;-60
2022/01/25 11:32:23;;;;;;;0.00;0.00;;;3.80;87.40;;;;;;4166332;28;20061;-59
2022/01/25 11:34:49;;;;;;;0.00;0.00;;;3.90;87.60;;;;;;4161838;28;20084;-60
2022/01/25 11:37:13;;;;;;;0.00;0.00;;;4.30;87.00;;;;;;4161990;28;20052;-59
2022/01/25 11:39:43;;;;;;;0.00;0.00;;;4.60;85.60;;;;;;4148347;28;20084;-59
2022/01/25 11:42:10;;;;;;;0.00;0.00;;;4.50;85.90;;;;;;4161453;28;20055;-59
2022/01/25 11:44:32;;;;;;;0.00;0.00;;;4.70;86.20;;;;;;4158448;28;20044;-60
2022/01/25 11:47:16;;;;;;;0.00;0.00;;;5.00;85.30;;;;;;4145475;28;20062;-61
2022/01/25 11:50:01;;;;;;;0.00;0.00;;;5.30;84.80;;;;;;4173864;28;20065;-58
2022/01/25 11:52:26;;;;;;;0.00;0.00;;;5.50;83.50;;;;;;4191527;28;20056;-55
2022/01/25 11:55:11;;;;;;;0.00;0.00;;;5.60;83.30;;;;;;4178081;28;20079;-57
2022/01/25 11:57:49;;;;;;;0.00;0.00;;;5.40;83.10;;;;;;4178275;28;20044;-57
2022/01/25 12:00:12;;;;;;;0.00;0.00;;;5.70;83.70;;;;;;4177639;28;20041;-52
2022/01/25 12:02:44;;;;;;;0.00;0.00;;;6.60;81.30;;;;;;4191632;28;20044;-53
2022/01/25 12:05:09;;;;;;;0.00;0.00;;;7.00;80.30;;;;;;4191971;28;20090;-56
2022/01/25 12:07:38;;;;;;;0.00;0.00;;;7.90;78.10;;;;;;4167029;28;20038;-55
2022/01/25 12:10:13;;;;;;;0.00;0.00;;;8.50;76.60;;;;;;4176131;28;20045;-56
2022/01/25 12:12:38;;;;;;;0.00;0.00;;;9.40;74.20;;;;;;4176879;28;20444;-57
2022/01/25 12:15:13;;;;;;;0.00;0.00;;;10.20;72.20;;;;;;4178030;28;20080;-57
2022/01/25 12:17:35;;;;;;;0.00;0.00;;;10.20;68.80;;;;;;4177860;28;20077;-57
2022/01/25 12:20:03;;;;;;;0.00;0.00;;;10.20;69.30;;;;;;4177962;28;20039;-58
2022/01/25 12:25:09;;;;;;;0.00;0.00;;;10.10;67.90;;;;;;4177813;28;20132;-58
2022/01/25 12:27:47;;;;;;;0.00;0.00;;;10.30;66.90;;;;;;4177847;28;20383;-59
2022/01/25 12:30:13;;;;;;;0.00;0.00;;;9.80;66.50;;;;;;4177650;28;20091;-57
2022/01/25 12:32:55;;;;;;;0.00;0.00;;;8.90;68.20;;;;;;4150624;28;20044;-57
2022/01/25 12:35:21;;;;;;;0.00;0.00;;;8.40;69.60;;;;;;4180201;28;20087;-55
2022/01/25 12:37:43;;;;;;;0.00;0.00;;;7.50;71.40;;;;;;4180759;28;20061;-55
2022/01/25 12:40:31;;;;;;;0.00;0.00;;;7.10;73.10;;;;;;4164910;28;20057;-58
2022/01/25 12:43:19;;;;;;;0.00;0.00;;;6.70;74.50;;;;;;4170039;28;20065;-55
2022/01/25 12:45:49;;;;;;;0.00;0.00;;;6.40;75.90;;;;;;4167016;28;20051;-57
2022/01/25 12:48:25;;;;;;;0.00;0.00;;;6.20;77.20;;;;;;4180477;28;20092;-57
2022/01/25 12:50:51;;;;;;;0.00;0.00;;;6.00;77.60;;;;;;4180353;28;20041;-57
2022/01/25 12:53:18;;;;;;;0.00;0.00;;;6.00;77.90;;;;;;4180601;28;20048;-58
2022/01/25 12:55:44;;;;;;;0.00;0.00;;;5.80;78.30;;;;;;4172833;28;20049;-59
2022/01/25 12:58:08;;;;;;;0.00;0.00;;;5.50;79.30;;;;;;4176928;28;20041;-58
2022/01/25 13:00:40;;;;;;;0.00;0.00;;;5.40;80.10;;;;;;4175376;28;20049;-58
2022/01/25 13:03:32;;;;;;;0.00;0.00;;;5.30;80.30;;;;;;4163766;28;20044;-58
2022/01/25 13:06:15;;;;;;;;;;;5.20;80.90;;;;;;4163170;28;20124;-57
2022/01/25 13:09:00;;;;;;;0.00;0.00;;;5.20;80.90;;;;;;4161624;28;19920;-58
2022/01/25 13:11:28;;;;;;;0.00;0.00;;;5.00;81.60;;;;;;4176161;28;20136;-58
2022/01/25 13:14:14;;;;;;;0.00;0.00;;;5.00;82.20;;;;;;4163024;28;20045;-57
2022/01/25 13:16:49;;;;;;;0.00;0.00;;;4.90;82.60;;;;;;4162363;28;20522;-56
2022/01/25 13:19:13;;;;;;;0.00;0.00;;;4.80;83.20;;;;;;4163358;28;20053;-56
2022/01/25 13:21:47;;;;;;;0.00;0.00;;;4.60;83.90;;;;;;4177229;28;20059;-57
2022/01/25 13:24:32;;;;;;;0.00;0.00;;;4.50;84.50;;;;;;4177284;28;20045;-54
2022/01/25 13:27:00;;;;;;;0.00;0.00;;;4.50;84.80;;;;;;4177396;28;20045;-57
2022/01/25 13:32:24;;;;;;;0.00;0.00;;;4.70;84.70;;;;;;4189710;28;20251;-57
2022/01/25 13:35:32;;;;;;;0.00;0.00;;;4.70;84.40;;;;;;4179414;28;20506;-57
2022/01/25 13:38:14;;;;;;;0.00;0.00;;;4.60;84.40;;;;;;4180028;28;20188;-57
2022/01/25 13:40:57;;;;;;;0.00;0.00;;;4.60;85.20;;;;;;4166258;28;20116;-59
2022/01/25 13:46:05;;;;;;;0.00;0.00;;;4.70;84.90;;;;;;4163277;28;20096;-57
2022/01/25 13:48:29;;;;;;;0.00;0.00;;;4.70;84.80;;;;;;4179231;28;20065;-59
2022/01/25 13:51:00;;;;;;;0.00;0.00;;;4.80;84.90;;;;;;4179270;28;20099;-59
2022/01/25 13:53:23;;;;;;;0.00;0.00;;;4.90;84.60;;;;;;4179887;28;20462;-59
2022/01/25 13:55:52;;;;;;;0.00;0.00;;;4.90;84.60;;;;;;4179750;28;20187;-59
2022/01/25 13:58:24;;;;;;;0.00;0.00;;;4.90;84.60;;;;;;4179249;28;20418;-57
2022/01/25 14:00:47;;;;;;;0.00;0.00;;;4.80;84.50;;;;;;4193247;28;20052;-58
2022/01/25 14:03:12;;;;;;;0.00;0.00;;;4.70;84.80;;;;;;4179616;28;20052;-59
2022/01/25 14:05:38;;;;;;;0.00;0.00;;;4.80;85.00;;;;;;4179481;28;20041;-58
2022/01/25 14:08:00;;;;;;;0.00;0.00;;;4.90;84.70;;;;;;4179285;28;20427;-57
2022/01/25 14:10:27;;;;;;;0.00;0.00;;;5.00;85.10;;;;;;4178855;28;20653;-59
2022/01/25 14:23:50;;;;;;;0.00;0.00;;;6.00;83.30;;;;;;4179063;28;20155;-49
2022/01/25 14:26:14;;;;;;;0.00;0.00;;;6.30;82.50;;;;;;4192803;28;20496;-54
2022/01/25 14:28:41;;;;;;;0.00;0.00;;;6.70;81.50;;;;;;4179184;28;20045;-56
2022/01/25 14:31:03;;;;;;;0.00;0.00;;;7.00;80.80;;;;;;4164678;28;20049;-54
2022/01/25 14:33:28;;;;;;;0.00;0.00;;;7.30;80.10;;;;;;4179242;28;20071;-56
2022/01/25 14:36:00;;;;;;;0.00;0.00;;;7.40;79.10;;;;;;4178758;28;20072;-56
2022/01/25 14:38:35;;;;;;;0.00;0.00;;;7.30;78.50;;;;;;4178528;28;20049;-56
2022/01/25 14:41:03;;;;;;;0.00;0.00;;;7.30;78.10;;;;;;4178515;28;20056;-55
2022/01/25 14:43:30;;;;;;;0.00;0.00;;;7.50;78.30;;;;;;4193081;28;20037;-56
2022/01/25 14:46:06;;;;;;;0.00;0.00;;;7.90;77.60;;;;;;4178793;28;20052;-58
2022/01/25 14:48:33;;;;;;;0.00;0.00;;;8.10;76.40;;;;;;4178342;28;20128;-57
2022/01/25 14:50:59;;;;;;;0.00;0.00;;;8.20;75.70;;;;;;4192367;28;20607;-57
2022/01/25 14:53:21;;;;;;;0.00;0.00;;;8.30;74.70;;;;;;4192866;28;20048;-56
2022/01/25 14:55:45;;;;;;;0.00;0.00;;;7.90;73.90;;;;;;4178818;28;20469;-57
2022/01/25 15:00:46;;;;;;;0.00;0.00;;;6.70;77.20;;;;;;4174277;28;20049;-58